createdAt,value
2022-10-06T00:02:25.051Z,9.50
2022-10-06T00:04:51.993Z,9.50
2022-10-06T00:07:19.099Z,9.50
2022-10-06T00:09:45.986Z,9.40
2022-10-06T00:12:13.347Z,9.40
2022-10-06T00:14:40.498Z,9.40
2022-10-06T00:17:07.722Z,9.30
2022-10-06T00:19:34.649Z,9.30
2022-10-06T00:22:01.588Z,9.30
2022-10-06T00:24:28.515Z,9.30
2022-10-06T00:26:55.467Z,9.20
2022-10-06T00:29:22.514Z,9.20
2022-10-06T00:31:49.386Z,9.20
2022-10-06T00:34:16.310Z,9.30
2022-10-06T00:36:43.944Z,9.30
2022-10-06T00:39:10.880Z,9.30
2022-10-06T00:41:39.461Z,9.30
2022-10-06T00:44:06.380Z,9.20
2022-10-06T00:46:53.738Z,9.20
2022-10-06T00:49:36.306Z,9.10
2022-10-06T00:52:07.413Z,9.10
2022-10-06T00:54:36.277Z,9.10
2022-10-06T00:57:04.691Z,9.20
2022-10-06T00:59:31.701Z,9.20
2022-10-06T01:02:50.685Z,9.30
2022-10-06T01:05:27.260Z,9.30
2022-10-06T01:07:54.500Z,9.30
2022-10-06T01:10:21.606Z,9.30
2022-10-06T01:12:48.544Z,9.40
2022-10-06T01:15:16.656Z,9.30
2022-10-06T01:17:52.764Z,9.40
2022-10-06T01:20:20.980Z,9.40
2022-10-06T01:22:55.595Z,9.30
2022-10-06T01:25:22.685Z,9.30
2022-10-06T01:27:53.743Z,9.30
2022-10-06T01:30:42.098Z,9.30
2022-10-06T01:33:09.293Z,9.30
2022-10-06T01:35:36.193Z,9.30
2022-10-06T01:38:03.153Z,9.30
2022-10-06T01:40:30.323Z,9.30
2022-10-06T01:42:57.446Z,9.30
2022-10-06T01:45:24.356Z,9.20
2022-10-06T01:47:51.416Z,9.20
2022-10-06T01:50:18.354Z,9.20
2022-10-06T01:52:45.302Z,9.20
2022-10-06T01:55:12.247Z,9.20
2022-10-06T01:57:41.366Z,9.20
2022-10-06T02:00:09.702Z,9.20
2022-10-06T02:02:36.705Z,9.20
2022-10-06T02:05:04.104Z,9.20
2022-10-06T02:07:31.003Z,9.10
2022-10-06T02:09:58.059Z,9.10
2022-10-06T02:12:24.993Z,9.10
2022-10-06T02:14:52.067Z,9.00
2022-10-06T02:17:18.934Z,9.00
2022-10-06T02:19:46.027Z,8.90
2022-10-06T02:22:12.918Z,8.90
2022-10-06T02:24:39.782Z,8.80
2022-10-06T02:27:07.050Z,8.60
2022-10-06T02:29:34.519Z,8.50
2022-10-06T02:32:01.488Z,8.50
2022-10-06T02:34:28.895Z,8.50
2022-10-06T02:36:56.039Z,8.50
2022-10-06T02:39:22.968Z,8.60
2022-10-06T02:41:49.873Z,8.60
2022-10-06T02:44:16.855Z,8.60
2022-10-06T02:46:43.767Z,8.60
2022-10-06T02:49:10.725Z,8.50
2022-10-06T02:51:37.683Z,8.70
2022-10-06T02:54:04.600Z,8.70
2022-10-06T02:56:31.517Z,8.80
2022-10-06T02:58:58.443Z,8.80
2022-10-06T03:01:27.750Z,8.80
2022-10-06T03:03:55.326Z,8.80
2022-10-06T03:06:26.630Z,8.70
2022-10-06T03:09:06.199Z,8.70
2022-10-06T03:11:35.554Z,8.80
2022-10-06T03:14:03.013Z,8.80
2022-10-06T03:16:36.060Z,8.70
2022-10-06T03:19:03.701Z,8.70
2022-10-06T03:21:33.027Z,8.70
2022-10-06T03:24:00.575Z,8.80
2022-10-06T03:26:30.646Z,8.80
2022-10-06T03:28:57.985Z,8.80
2022-10-06T03:31:25.643Z,8.90
2022-10-06T03:33:54.495Z,9.00
2022-10-06T03:36:23.012Z,9.10
2022-10-06T03:38:50.039Z,9.20
2022-10-06T03:41:19.838Z,9.10
2022-10-06T03:43:48.746Z,9.00
2022-10-06T03:46:21.598Z,9.00
2022-10-06T03:48:50.284Z,8.90
2022-10-06T03:51:23.502Z,9.10
2022-10-06T03:53:52.209Z,9.20
2022-10-06T03:56:30.744Z,9.20
2022-10-06T03:59:09.239Z,9.20
2022-10-06T04:01:39.497Z,9.10
2022-10-06T04:04:07.019Z,9.00
2022-10-06T04:06:37.064Z,8.90
2022-10-06T04:09:05.942Z,8.80
2022-10-06T04:11:35.971Z,8.60
2022-10-06T04:14:05.413Z,8.50
2022-10-06T04:16:38.364Z,8.40
2022-10-06T04:19:07.594Z,8.30
2022-10-06T04:21:39.214Z,8.30
2022-10-06T04:24:07.850Z,8.30
2022-10-06T04:26:38.995Z,8.40
2022-10-06T04:29:06.319Z,8.40
2022-10-06T04:31:39.189Z,8.40
2022-10-06T04:34:07.551Z,8.50
2022-10-06T04:36:41.169Z,8.60
2022-10-06T04:39:10.685Z,8.70
2022-10-06T04:41:41.161Z,8.80
2022-10-06T04:44:09.086Z,8.90
2022-10-06T04:46:44.771Z,8.80
2022-10-06T04:49:19.092Z,8.80
2022-10-06T04:51:47.609Z,8.80
2022-10-06T04:54:14.587Z,8.90
2022-10-06T04:56:41.469Z,8.90
2022-10-06T04:59:08.415Z,8.90
2022-10-06T05:01:36.900Z,9.00
2022-10-06T05:04:06.037Z,9.10
2022-10-06T05:06:35.901Z,9.20
2022-10-06T05:09:08.205Z,9.30
2022-10-06T05:11:35.690Z,9.40
2022-10-06T05:14:02.694Z,9.50
2022-10-06T05:16:31.199Z,9.50
2022-10-06T05:18:58.968Z,9.60
2022-10-06T05:21:28.581Z,9.60
2022-10-06T05:23:55.799Z,9.60
2022-10-06T05:26:25.088Z,9.70
2022-10-06T05:28:52.089Z,9.80
2022-10-06T05:31:28.000Z,9.80
2022-10-06T05:33:56.467Z,9.80
2022-10-06T05:36:25.816Z,9.80
2022-10-06T05:38:53.389Z,9.70
2022-10-06T05:41:24.106Z,9.70
2022-10-06T05:43:51.428Z,9.60
2022-10-06T05:46:20.943Z,9.60
2022-10-06T05:48:49.999Z,9.50
2022-10-06T05:51:19.193Z,9.50
2022-10-06T05:53:47.020Z,9.50
2022-10-06T05:56:34.793Z,9.60
2022-10-06T05:59:01.974Z,9.60
2022-10-06T06:01:32.983Z,9.50
2022-10-06T06:04:05.141Z,9.50
2022-10-06T06:06:32.927Z,9.40
2022-10-06T06:09:01.320Z,9.40
2022-10-06T06:11:31.461Z,9.30
2022-10-06T06:14:06.973Z,9.30
2022-10-06T06:16:34.925Z,9.30
2022-10-06T06:19:02.414Z,9.20
2022-10-06T06:21:29.800Z,9.20
2022-10-06T06:23:57.454Z,9.20
2022-10-06T06:26:30.462Z,9.10
2022-10-06T06:29:04.199Z,9.10
2022-10-06T06:31:34.226Z,9.20
2022-10-06T06:34:02.842Z,9.20
2022-10-06T06:36:36.087Z,9.10
2022-10-06T06:39:11.539Z,9.10
2022-10-06T06:41:41.182Z,9.10
2022-10-06T06:44:11.263Z,9.20
2022-10-06T06:46:39.211Z,9.20
2022-10-06T06:49:07.469Z,9.20
2022-10-06T06:51:40.370Z,9.30
2022-10-06T06:54:09.033Z,9.40
2022-10-06T06:56:36.855Z,9.40
2022-10-06T06:59:10.563Z,9.50
2022-10-06T07:01:39.155Z,9.40
2022-10-06T07:04:06.378Z,9.40
2022-10-06T07:06:36.994Z,9.60
2022-10-06T07:09:04.168Z,9.70
2022-10-06T07:11:36.788Z,9.80
2022-10-06T07:14:06.926Z,9.90
2022-10-06T07:16:53.318Z,10.00
2022-10-06T07:19:40.853Z,10.10
2022-10-06T07:22:35.073Z,10.10
2022-10-06T07:25:07.581Z,10.20
2022-10-06T07:27:43.839Z,10.20
2022-10-06T07:30:19.222Z,10.20
2022-10-06T07:32:47.735Z,10.30
2022-10-06T07:35:15.069Z,10.40
2022-10-06T07:37:42.099Z,10.40
2022-10-06T07:40:10.509Z,10.40
2022-10-06T07:42:48.473Z,10.50
2022-10-06T07:45:41.015Z,10.50
2022-10-06T07:48:20.464Z,10.50
2022-10-06T07:50:50.430Z,10.60
2022-10-06T07:53:18.797Z,10.70
2022-10-06T07:55:47.859Z,10.70
2022-10-06T07:58:20.638Z,10.80
2022-10-06T08:00:53.023Z,10.90
2022-10-06T08:03:20.475Z,11.00
2022-10-06T08:05:49.230Z,11.00
2022-10-06T08:08:16.815Z,11.10
2022-10-06T08:10:52.611Z,11.10
2022-10-06T08:13:19.546Z,11.20
2022-10-06T08:15:47.541Z,11.50
2022-10-06T08:18:33.779Z,12.00
2022-10-06T08:21:08.160Z,12.50
2022-10-06T08:23:42.253Z,12.70
2022-10-06T08:26:10.640Z,12.60
2022-10-06T08:28:38.377Z,12.60
2022-10-06T08:31:07.333Z,12.60
2022-10-06T08:33:36.033Z,12.70
2022-10-06T08:36:04.983Z,12.90
2022-10-06T08:38:32.391Z,13.10
2022-10-06T08:41:00.113Z,13.10
2022-10-06T08:43:28.886Z,13.10
2022-10-06T08:46:01.005Z,13.10
2022-10-06T08:48:38.740Z,13.20
2022-10-06T08:51:45.868Z,13.20
2022-10-06T08:54:17.815Z,13.30
2022-10-06T08:56:56.384Z,13.40
2022-10-06T08:59:23.398Z,13.20
2022-10-06T09:01:52.547Z,13.40
2022-10-06T09:04:31.150Z,13.60
2022-10-06T09:07:06.565Z,14.10
2022-10-06T09:09:53.783Z,14.60
2022-10-06T09:12:31.373Z,15.00
2022-10-06T09:15:06.622Z,15.20
2022-10-06T09:17:42.412Z,15.00
2022-10-06T09:20:20.605Z,14.80
2022-10-06T09:22:51.448Z,14.90
2022-10-06T09:25:22.484Z,15.50
2022-10-06T09:27:56.372Z,15.80
2022-10-06T09:30:24.338Z,16.00
2022-10-06T09:33:02.819Z,16.20
2022-10-06T09:35:32.172Z,16.70
2022-10-06T09:38:08.567Z,16.90
2022-10-06T09:40:37.279Z,17.10
2022-10-06T09:43:26.233Z,17.40
2022-10-06T09:46:13.434Z,17.50
2022-10-06T09:48:40.365Z,17.60
2022-10-06T09:51:12.860Z,17.50
2022-10-06T09:53:44.236Z,16.90
2022-10-06T09:56:19.395Z,16.50
2022-10-06T09:58:57.874Z,16.00
2022-10-06T10:01:31.838Z,15.70
2022-10-06T10:04:19.534Z,15.70
2022-10-06T10:06:48.035Z,15.80
2022-10-06T10:09:22.414Z,16.50
2022-10-06T10:12:29.894Z,16.50
2022-10-06T10:14:58.902Z,16.70
2022-10-06T10:17:42.721Z,16.40
2022-10-06T10:20:29.376Z,15.80
2022-10-06T10:22:59.587Z,15.50
2022-10-06T10:25:40.557Z,15.30
2022-10-06T10:28:20.371Z,15.10
2022-10-06T10:30:51.800Z,15.10
2022-10-06T10:33:59.217Z,15.00
2022-10-06T10:36:40.237Z,14.90
2022-10-06T10:39:14.211Z,14.70
2022-10-06T10:41:47.836Z,14.60
2022-10-06T10:44:26.259Z,14.50
2022-10-06T10:47:01.902Z,14.50
2022-10-06T10:49:32.852Z,14.80
2022-10-06T10:52:12.549Z,14.80
2022-10-06T10:55:00.202Z,14.70
2022-10-06T10:57:35.827Z,14.90
2022-10-06T11:00:11.695Z,15.40
2022-10-06T11:02:40.831Z,15.90
2022-10-06T11:05:28.214Z,16.70
2022-10-06T11:08:37.921Z,16.80
2022-10-06T11:11:15.707Z,16.40
2022-10-06T11:13:48.972Z,16.30
2022-10-06T11:16:30.880Z,16.70
2022-10-06T11:19:35.337Z,17.00
2022-10-06T11:22:14.906Z,16.90
2022-10-06T11:25:24.540Z,17.30
2022-10-06T11:28:14.774Z,18.00
2022-10-06T11:30:58.512Z,18.30
2022-10-06T11:33:49.240Z,18.50
2022-10-06T11:36:35.051Z,18.70
2022-10-06T11:39:12.649Z,18.80
2022-10-06T11:41:45.446Z,19.10
2022-10-06T11:44:33.597Z,19.20
2022-10-06T11:47:08.152Z,19.60
2022-10-06T11:49:51.739Z,19.80
2022-10-06T11:52:18.804Z,20.00
2022-10-06T11:54:51.939Z,20.20
2022-10-06T11:57:31.038Z,20.20
2022-10-06T12:00:16.098Z,20.50
2022-10-06T12:02:45.639Z,20.50
2022-10-06T12:08:35.712Z,20.20
2022-10-06T12:11:03.035Z,20.20
2022-10-06T12:19:41.508Z,20.30
2022-10-06T12:22:26.206Z,20.50
2022-10-06T12:25:10.666Z,20.60
2022-10-06T12:28:03.019Z,20.90
2022-10-06T12:31:07.972Z,20.80
2022-10-06T12:33:40.676Z,20.80
2022-10-06T12:36:28.880Z,20.60
2022-10-06T12:39:02.518Z,20.50
2022-10-06T12:41:58.595Z,20.60
2022-10-06T12:44:45.604Z,20.80
2022-10-06T12:47:34.836Z,21.00
2022-10-06T12:50:13.154Z,20.80
2022-10-06T12:52:52.308Z,21.00
2022-10-06T12:55:44.345Z,21.00
2022-10-06T12:58:28.924Z,20.90
2022-10-06T13:01:05.315Z,21.00
2022-10-06T13:03:32.481Z,21.30
2022-10-06T13:06:03.293Z,21.40
2022-10-06T13:08:33.547Z,21.40
2022-10-06T13:11:12.692Z,21.70
2022-10-06T13:13:51.452Z,21.40
2022-10-06T13:16:22.519Z,21.70
2022-10-06T13:18:53.802Z,21.70
2022-10-06T13:21:21.026Z,21.60
2022-10-06T13:23:48.850Z,21.60
2022-10-06T13:26:18.588Z,21.90
2022-10-06T13:28:47.092Z,21.70
2022-10-06T13:31:28.440Z,21.70
2022-10-06T13:34:06.068Z,21.70
2022-10-06T13:36:35.651Z,21.80
2022-10-06T13:39:12.453Z,21.90
2022-10-06T13:42:04.779Z,22.00
2022-10-06T13:44:36.397Z,21.90
2022-10-06T13:47:08.069Z,22.00
2022-10-06T13:49:47.209Z,21.90
2022-10-06T13:52:38.674Z,21.50
2022-10-06T13:55:22.110Z,21.40
2022-10-06T13:58:06.544Z,21.30
2022-10-06T14:00:56.097Z,21.00
2022-10-06T14:03:28.974Z,20.90
2022-10-06T14:06:17.845Z,20.90
2022-10-06T14:08:56.563Z,20.70
2022-10-06T14:11:26.564Z,20.60
2022-10-06T14:14:00.497Z,20.70
2022-10-06T14:16:29.059Z,20.40
2022-10-06T14:19:00.291Z,20.30
2022-10-06T14:21:36.880Z,20.70
2022-10-06T14:24:27.273Z,21.10
2022-10-06T14:26:59.996Z,21.30
2022-10-06T14:29:26.897Z,21.10
2022-10-06T14:31:53.822Z,20.70
2022-10-06T14:34:22.230Z,20.40
2022-10-06T14:36:55.369Z,20.40
2022-10-06T14:39:22.655Z,20.40
2022-10-06T14:41:49.763Z,20.70
2022-10-06T14:44:16.787Z,20.90
2022-10-06T14:46:48.292Z,21.10
2022-10-06T14:49:15.942Z,21.10
2022-10-06T14:51:44.165Z,21.20
2022-10-06T14:54:11.960Z,21.40
2022-10-06T14:56:40.522Z,21.20
2022-10-06T14:59:12.053Z,21.10
2022-10-06T15:01:42.793Z,20.90
2022-10-06T15:04:13.945Z,20.60
2022-10-06T15:07:00.412Z,20.40
2022-10-06T15:09:30.572Z,20.30
2022-10-06T15:11:57.897Z,20.20
2022-10-06T15:14:24.880Z,19.60
2022-10-06T15:16:52.064Z,19.20
2022-10-06T15:19:19.102Z,18.90
2022-10-06T15:21:46.297Z,18.70
2022-10-06T15:24:15.911Z,18.50
2022-10-06T15:27:02.216Z,18.20
2022-10-06T15:29:29.654Z,18.00
2022-10-06T15:31:58.681Z,17.80
2022-10-06T15:34:31.708Z,17.70
2022-10-06T15:36:59.304Z,17.60
2022-10-06T15:39:28.596Z,17.30
2022-10-06T15:41:55.649Z,17.10
2022-10-06T15:44:23.008Z,17.00
2022-10-06T15:46:55.407Z,17.00
2022-10-06T15:49:25.032Z,17.00
2022-10-06T15:51:54.204Z,17.00
2022-10-06T15:54:29.279Z,17.10
2022-10-06T15:56:58.691Z,17.00
2022-10-06T15:59:27.228Z,17.00
2022-10-06T16:01:58.134Z,16.90
2022-10-06T16:04:39.086Z,16.70
2022-10-06T16:07:14.272Z,16.60
2022-10-06T16:09:43.733Z,16.50
2022-10-06T16:12:13.187Z,16.20
2022-10-06T16:14:40.387Z,16.10
2022-10-06T16:17:09.450Z,16.10
2022-10-06T16:19:42.834Z,16.00
2022-10-06T16:22:15.253Z,16.00
2022-10-06T16:24:42.447Z,15.80
2022-10-06T16:27:14.189Z,15.80
2022-10-06T16:29:41.329Z,15.80
2022-10-06T16:32:08.327Z,15.70
2022-10-06T16:34:35.295Z,15.80
2022-10-06T16:37:02.228Z,15.60
2022-10-06T16:39:29.241Z,15.60
2022-10-06T16:41:56.239Z,15.70
2022-10-06T16:44:23.236Z,15.60
2022-10-06T16:46:50.227Z,15.60
2022-10-06T16:49:17.262Z,15.50
2022-10-06T16:51:48.011Z,15.40
2022-10-06T16:54:17.357Z,15.40
2022-10-06T16:56:51.906Z,15.40
2022-10-06T16:59:21.165Z,15.30
2022-10-06T17:01:48.953Z,15.20
2022-10-06T17:04:24.277Z,15.20
2022-10-06T17:06:53.525Z,15.10
2022-10-06T17:09:24.940Z,15.00
2022-10-06T17:11:52.967Z,15.00
2022-10-06T17:14:21.465Z,14.90
2022-10-06T17:16:50.953Z,14.80
2022-10-06T17:19:19.934Z,14.70
2022-10-06T17:21:49.553Z,14.60
2022-10-06T17:24:20.315Z,14.50
2022-10-06T17:26:49.213Z,14.50
2022-10-06T17:29:19.104Z,14.40
2022-10-06T17:31:47.031Z,14.40
2022-10-06T17:34:20.719Z,14.20
2022-10-06T17:36:51.038Z,14.20
2022-10-06T17:39:20.910Z,14.10
2022-10-06T17:41:49.589Z,14.00
2022-10-06T17:44:23.433Z,14.00
2022-10-06T17:46:53.297Z,13.90
2022-10-06T17:49:21.826Z,14.00
2022-10-06T17:51:49.810Z,13.90
2022-10-06T17:54:20.267Z,13.90
2022-10-06T17:56:49.358Z,13.80
2022-10-06T17:59:25.924Z,13.90
2022-10-06T18:01:56.944Z,13.80
2022-10-06T18:04:24.011Z,13.80
2022-10-06T18:06:53.102Z,13.70
2022-10-06T18:09:20.488Z,13.70
2022-10-06T18:11:55.714Z,13.70
2022-10-06T18:14:26.047Z,13.60
2022-10-06T18:16:57.966Z,13.60
2022-10-06T18:19:35.988Z,13.50
2022-10-06T18:22:12.951Z,13.50
2022-10-06T18:24:40.436Z,13.40
2022-10-06T18:27:08.355Z,13.30
2022-10-06T18:29:37.907Z,13.20
2022-10-06T18:36:12.373Z,13.10
2022-10-06T18:37:41.773Z,13.10
2022-10-06T18:40:10.158Z,13.10
2022-10-06T18:42:37.647Z,13.10
2022-10-06T18:45:24.261Z,13.00
2022-10-06T18:48:10.047Z,13.00
2022-10-06T18:50:37.127Z,13.00
2022-10-06T18:53:04.463Z,13.00
2022-10-06T18:55:32.174Z,12.90
2022-10-06T18:57:59.236Z,12.90
2022-10-06T19:00:26.280Z,12.70
2022-10-06T19:02:55.534Z,12.70
2022-10-06T19:05:23.506Z,12.70
2022-10-06T19:07:53.802Z,12.60
2022-10-06T19:10:20.859Z,12.60
2022-10-06T19:12:48.522Z,12.60
2022-10-06T19:15:20.349Z,12.50
2022-10-06T19:17:47.902Z,12.40
2022-10-06T19:20:14.986Z,12.40
2022-10-06T19:22:43.479Z,12.40
2022-10-06T19:25:11.311Z,12.40
2022-10-06T19:27:38.218Z,12.40
2022-10-06T19:30:06.621Z,12.30
2022-10-06T19:32:33.919Z,12.30
2022-10-06T19:35:00.947Z,12.30
2022-10-06T19:37:30.249Z,12.40
2022-10-06T19:39:57.207Z,12.40
2022-10-06T19:42:53.523Z,12.20
2022-10-06T19:45:21.102Z,12.20
2022-10-06T19:47:48.676Z,12.20
2022-10-06T19:50:17.149Z,12.20
2022-10-06T19:52:45.258Z,12.20
2022-10-06T19:55:12.441Z,12.20
2022-10-06T19:57:39.363Z,12.20
2022-10-06T20:00:07.542Z,12.10
2022-10-06T20:02:37.404Z,12.10
2022-10-06T20:05:07.164Z,12.10
2022-10-06T20:07:34.095Z,12.20
2022-10-06T20:10:00.964Z,12.20
2022-10-06T20:12:28.741Z,12.10
2022-10-06T20:14:55.974Z,12.20
2022-10-06T20:17:23.247Z,12.20
2022-10-06T20:19:56.687Z,12.20
2022-10-06T20:22:25.346Z,12.20
2022-10-06T20:24:52.375Z,12.20
2022-10-06T20:27:19.727Z,12.10
2022-10-06T20:29:46.835Z,12.10
2022-10-06T20:32:14.249Z,12.10
2022-10-06T20:34:41.306Z,12.00
2022-10-06T20:37:08.286Z,12.00
2022-10-06T20:39:54.052Z,12.10
2022-10-06T20:42:21.666Z,12.10
2022-10-06T20:44:48.918Z,12.10
2022-10-06T20:47:16.688Z,12.10
2022-10-06T20:49:44.663Z,12.20
2022-10-06T20:52:14.858Z,12.10
2022-10-06T20:54:42.143Z,12.20
2022-10-06T20:57:09.680Z,12.30
2022-10-06T20:59:37.741Z,12.40
2022-10-06T21:02:05.955Z,12.40
2022-10-06T21:04:34.587Z,12.40
2022-10-06T21:07:04.144Z,12.50
2022-10-06T21:09:31.178Z,12.40
2022-10-06T21:11:58.198Z,12.40
2022-10-06T21:14:25.368Z,12.30
2022-10-06T21:16:52.777Z,12.20
2022-10-06T21:19:20.042Z,12.10
2022-10-06T21:21:53.410Z,12.10
2022-10-06T21:24:20.883Z,12.10
2022-10-06T21:26:48.888Z,12.30
2022-10-06T21:29:16.429Z,12.40
2022-10-06T21:31:44.937Z,12.60
2022-10-06T21:34:12.275Z,12.70
2022-10-06T21:36:39.257Z,12.80
2022-10-06T21:39:06.787Z,12.90
2022-10-06T21:41:38.982Z,13.00
2022-10-06T21:44:13.361Z,13.00
2022-10-06T21:46:53.924Z,13.00
2022-10-06T21:49:25.602Z,12.90
2022-10-06T21:51:55.041Z,12.90
2022-10-06T21:54:23.529Z,12.90
2022-10-06T21:56:50.961Z,12.90
2022-10-06T21:59:18.571Z,12.80
2022-10-06T22:01:46.783Z,12.80
2022-10-06T22:04:14.918Z,12.80
2022-10-06T22:06:43.658Z,12.80
2022-10-06T22:09:14.511Z,12.80
2022-10-06T22:11:41.924Z,12.80
2022-10-06T22:14:12.493Z,12.80
2022-10-06T22:16:39.777Z,12.90
2022-10-06T22:19:09.507Z,12.80
2022-10-06T22:21:38.953Z,12.80
2022-10-06T22:24:11.136Z,12.70
2022-10-06T22:26:40.012Z,12.70
2022-10-06T22:29:09.719Z,12.80
2022-10-06T22:31:39.351Z,12.80
2022-10-06T22:34:07.563Z,12.90
2022-10-06T22:36:35.038Z,12.90
2022-10-06T22:39:02.471Z,13.00
2022-10-06T22:41:29.853Z,13.00
2022-10-06T22:43:58.633Z,13.00
2022-10-06T22:46:28.001Z,13.00
2022-10-06T22:48:55.581Z,13.00
2022-10-06T22:51:22.682Z,13.00
2022-10-06T22:53:58.259Z,13.00
2022-10-06T22:56:26.870Z,13.10
2022-10-06T22:58:54.053Z,13.00
2022-10-06T23:01:21.515Z,12.90
2022-10-06T23:03:48.567Z,13.00
2022-10-06T23:06:17.630Z,13.00
2022-10-06T23:08:44.883Z,12.90
2022-10-06T23:11:14.404Z,12.90
2022-10-06T23:13:43.251Z,12.90
2022-10-06T23:16:12.523Z,12.90
2022-10-06T23:18:40.704Z,12.80
2022-10-06T23:21:10.255Z,12.80
2022-10-06T23:23:37.560Z,12.90
2022-10-06T23:26:09.321Z,12.90
2022-10-06T23:28:36.604Z,12.90
2022-10-06T23:31:09.527Z,12.90
2022-10-06T23:33:36.682Z,13.00
2022-10-06T23:36:09.461Z,13.00
2022-10-06T23:38:37.944Z,12.90
2022-10-06T23:41:06.009Z,13.00
2022-10-06T23:43:33.216Z,13.10
2022-10-06T23:46:00.378Z,13.10
2022-10-06T23:48:27.364Z,13.20
2022-10-06T23:51:05.488Z,13.20
2022-10-06T23:53:32.888Z,13.30
2022-10-06T23:55:59.836Z,13.30
2022-10-06T23:58:27.897Z,13.20
